createdAt,value
2022-08-07T00:00:42.999Z,20.30
2022-08-07T00:03:17.129Z,20.60
2022-08-07T00:05:53.976Z,20.30
2022-08-07T00:08:29.543Z,20.60
2022-08-07T00:11:02.257Z,20.50
2022-08-07T00:13:37.324Z,20.40
2022-08-07T00:16:21.584Z,20.80
2022-08-07T00:19:01.533Z,20.90
2022-08-07T00:21:56.978Z,20.70
2022-08-07T00:24:37.886Z,20.80
2022-08-07T00:27:11.357Z,20.70
2022-08-07T00:29:45.482Z,20.90
2022-08-07T00:32:19.013Z,20.80
2022-08-07T00:35:02.842Z,20.80
2022-08-07T00:37:47.649Z,20.60
2022-08-07T00:40:40.129Z,20.70
2022-08-07T00:43:59.195Z,21.20
2022-08-07T00:46:05.200Z,21.70
2022-08-07T00:48:43.485Z,23.00
2022-08-07T00:51:16.465Z,24.50
2022-08-07T00:53:50.411Z,25.10
2022-08-07T00:56:30.406Z,25.80
2022-08-07T00:59:06.819Z,25.80
2022-08-07T01:01:44.166Z,25.70
2022-08-07T01:04:24.555Z,25.20
2022-08-07T01:07:01.648Z,24.60
2022-08-07T01:10:05.156Z,23.80
2022-08-07T01:12:36.820Z,25.20
2022-08-07T01:15:11.949Z,24.80
2022-08-07T01:17:48.723Z,25.20
2022-08-07T01:20:34.030Z,25.80
2022-08-07T01:23:18.438Z,26.80
2022-08-07T01:26:12.252Z,26.40
2022-08-07T01:28:50.555Z,26.30
2022-08-07T01:31:42.733Z,26.30
2022-08-07T01:34:30.077Z,26.30
2022-08-07T01:37:02.995Z,26.40
2022-08-07T01:39:41.201Z,26.50
2022-08-07T01:42:38.454Z,26.90
2022-08-07T01:45:18.312Z,26.80
2022-08-07T01:48:20.198Z,27.10
2022-08-07T01:50:51.396Z,27.60
2022-08-07T01:54:09.028Z,27.70
2022-08-07T01:56:30.786Z,27.30
2022-08-07T01:59:18.757Z,27.50
2022-08-07T02:02:04.316Z,27.00
2022-08-07T02:04:52.668Z,27.50
2022-08-07T02:07:36.235Z,27.10
2022-08-07T02:10:42.317Z,27.80
2022-08-07T02:13:14.286Z,28.10
2022-08-07T02:15:50.043Z,27.50
2022-08-07T02:18:29.950Z,26.50
2022-08-07T02:21:08.563Z,26.00
2022-08-07T02:23:52.695Z,25.50
2022-08-07T02:26:32.446Z,25.10
2022-08-07T02:29:14.678Z,25.10
2022-08-07T02:31:59.021Z,25.80
2022-08-07T02:34:32.252Z,25.60
2022-08-07T02:37:10.140Z,26.80
2022-08-07T02:40:02.167Z,27.00
2022-08-07T02:42:37.011Z,28.00
2022-08-07T02:45:57.517Z,28.20
2022-08-07T02:48:10.468Z,27.70
2022-08-07T02:50:53.014Z,27.10
2022-08-07T02:53:31.483Z,27.90
2022-08-07T02:56:21.890Z,28.50
2022-08-07T02:58:57.007Z,27.30
2022-08-07T03:01:36.583Z,26.30
2022-08-07T03:04:16.768Z,26.10
2022-08-07T03:06:56.142Z,26.10
2022-08-07T03:09:43.182Z,27.20
2022-08-07T03:12:22.266Z,27.60
2022-08-07T03:15:07.532Z,27.60
2022-08-07T03:17:53.487Z,27.70
2022-08-07T03:20:26.474Z,27.20
2022-08-07T03:23:03.885Z,26.90
2022-08-07T03:25:44.091Z,26.90
2022-08-07T03:28:37.387Z,28.20
2022-08-07T03:31:23.707Z,28.30
2022-08-07T03:34:01.756Z,28.10
2022-08-07T03:36:37.623Z,27.40
2022-08-07T03:39:15.211Z,26.60
2022-08-07T03:41:57.722Z,27.60
2022-08-07T03:44:34.784Z,27.60
2022-08-07T03:47:13.894Z,27.30
2022-08-07T03:49:52.014Z,27.00
2022-08-07T03:52:30.010Z,27.20
2022-08-07T03:55:06.740Z,27.70
2022-08-07T03:58:35.420Z,27.70
2022-08-07T04:00:35.617Z,27.90
2022-08-07T04:03:09.980Z,27.90
2022-08-07T04:05:45.500Z,27.80
2022-08-07T04:08:18.513Z,27.50
2022-08-07T04:12:24.943Z,27.30
2022-08-07T04:14:10.727Z,27.40
2022-08-07T04:16:58.801Z,27.40
2022-08-07T04:19:34.076Z,27.70
2022-08-07T04:22:29.044Z,27.80
2022-08-07T04:25:08.806Z,27.40
2022-08-07T04:27:59.326Z,27.40
2022-08-07T04:30:43.927Z,27.30
2022-08-07T04:33:26.722Z,27.60
2022-08-07T04:36:02.126Z,27.30
2022-08-07T04:38:38.589Z,27.30
2022-08-07T04:41:18.178Z,27.20
2022-08-07T04:44:11.836Z,27.00
2022-08-07T04:46:59.481Z,27.20
2022-08-07T04:50:03.830Z,27.40
2022-08-07T04:52:51.405Z,27.20
2022-08-07T04:58:24.119Z,27.10
2022-08-07T04:58:49.699Z,25.80
2022-08-07T05:01:33.220Z,25.80
2022-08-07T05:04:17.092Z,26.90
2022-08-07T05:07:09.719Z,26.20
2022-08-07T05:09:58.985Z,26.10
2022-08-07T05:12:51.344Z,25.60
2022-08-07T05:15:31.395Z,26.40
2022-08-07T05:18:09.289Z,26.30
2022-08-07T05:20:50.209Z,26.20
2022-08-07T05:23:30.891Z,26.80
2022-08-07T05:26:18.798Z,26.40
2022-08-07T05:29:04.568Z,26.00
2022-08-07T05:31:41.351Z,26.00
2022-08-07T05:34:27.715Z,26.60
2022-08-07T05:37:05.614Z,25.70
2022-08-07T05:40:13.567Z,26.10
2022-08-07T05:42:36.941Z,25.80
2022-08-07T05:45:26.401Z,25.90
2022-08-07T05:48:09.125Z,25.30
2022-08-07T05:50:43.929Z,25.20
2022-08-07T05:54:12.423Z,25.20
2022-08-07T05:56:13.189Z,24.80
2022-08-07T05:58:52.807Z,25.00
2022-08-07T06:01:34.880Z,25.30
2022-08-07T06:04:17.413Z,25.40
2022-08-07T06:06:56.801Z,25.10
2022-08-07T06:10:03.953Z,24.80
2022-08-07T06:12:37.925Z,24.80
2022-08-07T06:15:15.295Z,24.70
2022-08-07T06:17:54.917Z,24.90
2022-08-07T06:20:50.755Z,24.60
2022-08-07T06:23:46.228Z,24.80
2022-08-07T06:26:21.263Z,24.70
2022-08-07T06:28:54.308Z,24.40
2022-08-07T06:31:46.714Z,24.40
2022-08-07T06:34:29.566Z,23.30
2022-08-07T06:37:04.793Z,22.80
2022-08-07T06:40:12.855Z,22.80
2022-08-07T06:42:37.066Z,23.10
2022-08-07T06:45:18.127Z,22.40
2022-08-07T06:47:59.966Z,22.30
2022-08-07T06:50:36.022Z,22.30
2022-08-07T06:53:49.297Z,22.00
2022-08-07T06:56:15.554Z,22.20
2022-08-07T07:00:12.870Z,22.20
2022-08-07T07:01:50.614Z,22.00
2022-08-07T07:04:28.528Z,21.40
2022-08-07T07:07:58.313Z,21.60
2022-08-07T07:10:08.994Z,21.70
2022-08-07T07:12:53.752Z,21.30
2022-08-07T07:15:32.699Z,20.90
2022-08-07T07:18:13.030Z,21.10
2022-08-07T07:20:53.411Z,21.20
2022-08-07T07:24:08.527Z,20.70
2022-08-07T07:26:35.524Z,20.80
2022-08-07T07:29:55.756Z,20.70
2022-08-07T07:32:15.242Z,20.20
2022-08-07T07:34:50.706Z,21.00
2022-08-07T07:37:44.470Z,20.40
2022-08-07T07:40:26.231Z,20.40
2022-08-07T07:43:15.162Z,19.80
2022-08-07T07:46:38.457Z,20.20
2022-08-07T07:49:00.252Z,19.70
2022-08-07T07:51:57.602Z,19.50
2022-08-07T07:54:38.601Z,19.10
2022-08-07T07:57:44.053Z,19.10
2022-08-07T08:00:31.193Z,19.70
2022-08-07T08:04:09.697Z,19.20
2022-08-07T08:06:11.606Z,19.10
2022-08-07T08:08:48.262Z,18.70
2022-08-07T08:11:59.909Z,18.30
2022-08-07T08:14:24.557Z,17.00
2022-08-07T08:17:56.682Z,17.10
2022-08-07T08:20:17.470Z,17.00
2022-08-07T08:23:22.305Z,16.60
2022-08-07T08:26:22.449Z,15.20
2022-08-07T08:28:59.669Z,13.10
2022-08-07T08:31:59.206Z,13.60
2022-08-07T08:34:35.992Z,13.50
2022-08-07T08:38:00.379Z,12.70
2022-08-07T08:40:16.279Z,12.40
2022-08-07T08:42:59.628Z,12.60
2022-08-07T08:45:59.279Z,12.50
2022-08-07T08:48:44.570Z,12.20
2022-08-07T08:51:49.658Z,12.10
2022-08-07T08:54:34.653Z,12.80
2022-08-07T08:57:33.952Z,12.60
2022-08-07T09:00:12.001Z,12.70
2022-08-07T09:02:52.561Z,11.70
2022-08-07T09:05:39.036Z,11.50
2022-08-07T09:08:24.148Z,10.30
2022-08-07T09:11:50.591Z,10.80
2022-08-07T09:14:29.795Z,9.50
2022-08-07T09:17:10.302Z,10.30
2022-08-07T09:19:56.620Z,10.00
2022-08-07T09:24:32.556Z,10.50
2022-08-07T09:25:54.692Z,10.10
2022-08-07T09:30:03.757Z,9.20
2022-08-07T09:31:48.406Z,9.70
2022-08-07T09:34:27.315Z,9.70
2022-08-07T09:37:12.683Z,8.50
2022-08-07T09:40:04.814Z,8.70
2022-08-07T09:42:53.530Z,9.20
2022-08-07T09:47:25.997Z,9.20
2022-08-07T09:49:02.245Z,8.20
2022-08-07T09:52:10.428Z,8.60
2022-08-07T09:54:46.069Z,9.10
2022-08-07T09:57:59.782Z,8.50
2022-08-07T10:00:44.872Z,8.70
2022-08-07T10:04:03.820Z,8.30
2022-08-07T10:06:59.513Z,8.90
2022-08-07T10:10:03.589Z,8.50
2022-08-07T10:12:55.192Z,9.10
2022-08-07T10:15:50.915Z,8.80
2022-08-07T10:18:35.360Z,8.00
2022-08-07T10:22:12.313Z,8.50
2022-08-07T10:24:46.076Z,7.10
2022-08-07T10:27:45.986Z,7.00
2022-08-07T10:30:34.999Z,6.70
2022-08-07T10:34:04.907Z,5.70
2022-08-07T10:36:53.725Z,5.50
2022-08-07T10:39:42.157Z,7.10
2022-08-07T10:42:39.582Z,7.10
2022-08-07T10:45:57.166Z,6.20
2022-08-07T10:48:44.622Z,5.90
2022-08-07T10:51:39.079Z,4.40
2022-08-07T10:54:22.652Z,4.50
2022-08-07T10:57:16.446Z,5.40
2022-08-07T11:00:06.160Z,6.10
2022-08-07T11:02:57.587Z,5.70
2022-08-07T11:05:51.224Z,5.30
2022-08-07T11:08:39.046Z,6.20
2022-08-07T11:11:16.537Z,5.40
2022-08-07T11:14:43.717Z,5.00
2022-08-07T11:17:07.271Z,3.90
2022-08-07T11:19:51.224Z,4.30
2022-08-07T11:22:36.086Z,4.40
2022-08-07T11:25:25.212Z,5.00
2022-08-07T11:28:06.696Z,5.00
2022-08-07T11:30:54.325Z,4.40
2022-08-07T11:33:58.782Z,3.40
2022-08-07T11:36:47.559Z,4.70
2022-08-07T11:40:00.274Z,4.50
2022-08-07T11:42:50.579Z,3.40
2022-08-07T11:45:36.077Z,3.40
2022-08-07T11:48:46.678Z,3.90
2022-08-07T11:51:50.756Z,2.80
2022-08-07T11:54:54.905Z,3.50
2022-08-07T11:58:00.134Z,3.60
2022-08-07T12:00:48.869Z,2.90
2022-08-07T12:04:07.276Z,3.00
2022-08-07T12:07:00.728Z,1.90
2022-08-07T12:09:51.462Z,3.00
2022-08-07T12:12:36.797Z,2.10
2022-08-07T12:15:17.203Z,2.40
2022-08-07T12:18:22.281Z,2.50
2022-08-07T12:21:15.915Z,2.70
2022-08-07T12:24:07.465Z,2.50
2022-08-07T12:27:16.014Z,2.30
2022-08-07T12:30:00.465Z,1.80
2022-08-07T12:32:53.752Z,2.30
2022-08-07T12:35:36.990Z,2.50
2022-08-07T12:38:19.343Z,1.90
2022-08-07T12:41:06.043Z,1.40
2022-08-07T12:44:04.122Z,1.70
2022-08-07T12:47:01.437Z,1.20
2022-08-07T12:49:51.052Z,1.10
2022-08-07T12:52:39.108Z,1.40
2022-08-07T12:55:41.426Z,0.60
2022-08-07T12:58:19.915Z,1.60
2022-08-07T13:01:18.333Z,1.60
2022-08-07T13:04:34.548Z,2.30
2022-08-07T13:08:14.077Z,0.90
2022-08-07T13:10:51.763Z,1.00
2022-08-07T13:13:50.317Z,0.50
2022-08-07T13:16:42.043Z,1.30
2022-08-07T13:19:46.194Z,1.50
2022-08-07T13:22:33.776Z,0.90
2022-08-07T13:25:29.111Z,0.80
2022-08-07T13:28:18.404Z,1.30
2022-08-07T13:31:13.202Z,1.00
2022-08-07T13:34:31.621Z,0.50
2022-08-07T13:36:53.560Z,1.40
2022-08-07T13:40:34.018Z,0.70
2022-08-07T13:42:29.201Z,1.20
2022-08-07T13:46:11.999Z,1.50
2022-08-07T13:48:08.698Z,0.80
2022-08-07T13:51:00.875Z,0.60
2022-08-07T13:53:59.542Z,0.10
2022-08-07T13:56:52.126Z,0.00
2022-08-07T13:59:34.576Z,0.70
2022-08-07T14:02:29.609Z,0.30
2022-08-07T14:05:21.930Z,0.00
2022-08-07T14:08:01.472Z,0.00
2022-08-07T14:11:01.827Z,0.00
2022-08-07T14:13:55.540Z,0.00
2022-08-07T14:16:44.941Z,0.00
2022-08-07T14:20:43.567Z,0.00
2022-08-07T14:22:34.616Z,0.30
2022-08-07T14:25:17.729Z,0.50
2022-08-07T14:28:11.911Z,0.50
2022-08-07T14:30:56.738Z,0.10
2022-08-07T14:33:45.315Z,0.80
2022-08-07T14:36:33.669Z,0.90
2022-08-07T14:40:14.510Z,1.40
2022-08-07T14:42:32.472Z,1.40
2022-08-07T14:45:21.135Z,1.00
2022-08-07T14:48:03.945Z,0.50
2022-08-07T14:50:54.230Z,0.30
2022-08-07T14:54:03.802Z,0.80
2022-08-07T14:56:30.827Z,0.40
2022-08-07T14:59:14.107Z,0.50
2022-08-07T15:02:31.739Z,0.70
2022-08-07T15:05:20.586Z,0.00
2022-08-07T15:08:08.894Z,0.00
2022-08-07T15:10:58.934Z,0.00
2022-08-07T15:13:48.693Z,0.50
2022-08-07T15:16:35.811Z,0.70
2022-08-07T15:19:17.230Z,0.50
2022-08-07T15:22:04.397Z,0.40
2022-08-07T15:25:14.955Z,0.80
2022-08-07T15:27:38.887Z,0.30
2022-08-07T15:30:28.526Z,0.60
2022-08-07T15:33:05.527Z,0.90
2022-08-07T15:38:51.432Z,0.10
2022-08-07T15:42:44.981Z,0.00
2022-08-07T15:44:23.689Z,0.00
2022-08-07T15:47:03.328Z,0.60
2022-08-07T15:50:05.788Z,0.00
2022-08-07T15:52:31.459Z,0.00
2022-08-07T15:55:08.845Z,0.00
2022-08-07T15:57:48.779Z,0.30
2022-08-07T16:00:32.157Z,0.40
2022-08-07T16:03:05.468Z,0.50
2022-08-07T16:05:36.129Z,0.00
2022-08-07T16:08:30.536Z,0.40
2022-08-07T16:11:02.750Z,0.50
2022-08-07T16:13:58.884Z,0.50
2022-08-07T16:17:15.220Z,0.40
2022-08-07T16:20:33.858Z,0.30
2022-08-07T16:23:52.970Z,0.30
2022-08-07T16:26:16.732Z,0.20
2022-08-07T16:30:06.768Z,0.50
2022-08-07T16:32:05.110Z,0.10
2022-08-07T16:34:48.943Z,0.00
2022-08-07T16:38:04.748Z,0.00
2022-08-07T16:41:01.793Z,0.00
2022-08-07T16:44:03.787Z,0.90
2022-08-07T16:47:16.366Z,0.80
2022-08-07T16:50:39.112Z,0.50
2022-08-07T16:54:01.674Z,0.60
2022-08-07T16:56:39.330Z,0.90
2022-08-07T16:59:17.490Z,0.70
2022-08-07T17:02:02.879Z,0.50
2022-08-07T17:04:57.687Z,0.70
2022-08-07T17:07:55.729Z,0.80
2022-08-07T17:10:35.732Z,0.30
2022-08-07T17:13:41.379Z,0.60
2022-08-07T17:16:25.052Z,0.00
2022-08-07T17:19:04.583Z,0.00
2022-08-07T17:21:50.735Z,0.20
2022-08-07T17:24:32.007Z,0.20
2022-08-07T17:27:08.406Z,1.00
2022-08-07T17:30:15.231Z,0.70
2022-08-07T17:32:57.182Z,0.20
2022-08-07T17:35:50.811Z,0.00
2022-08-07T17:38:34.085Z,0.20
2022-08-07T17:42:02.579Z,0.30
2022-08-07T17:44:06.480Z,0.00
2022-08-07T17:46:52.626Z,0.60
2022-08-07T17:49:26.513Z,0.30
2022-08-07T17:52:10.585Z,0.50
2022-08-07T17:54:53.906Z,0.70
2022-08-07T17:57:58.433Z,0.70
2022-08-07T18:00:27.483Z,0.80
2022-08-07T18:03:17.910Z,0.80
2022-08-07T18:06:01.435Z,1.00
2022-08-07T18:08:49.315Z,1.60
2022-08-07T18:12:16.351Z,1.30
2022-08-07T18:14:32.004Z,1.30
2022-08-07T18:18:47.071Z,1.50
2022-08-07T18:21:08.959Z,1.60
2022-08-07T18:23:43.829Z,1.70
2022-08-07T18:26:01.430Z,1.70
2022-08-07T18:28:58.183Z,2.10
2022-08-07T18:31:50.203Z,2.00
2022-08-07T18:34:39.394Z,2.00
2022-08-07T18:38:57.225Z,2.00
2022-08-07T18:40:42.422Z,2.50
2022-08-07T18:43:37.155Z,2.30
2022-08-07T18:46:26.842Z,2.40
2022-08-07T18:50:31.207Z,2.40
2022-08-07T18:52:34.311Z,2.60
2022-08-07T18:55:40.645Z,2.60
2022-08-07T18:58:19.385Z,2.60
2022-08-07T19:01:01.351Z,2.50
2022-08-07T19:03:36.173Z,2.90
2022-08-07T19:06:16.496Z,2.90
2022-08-07T19:08:52.163Z,3.30
2022-08-07T19:11:39.235Z,3.30
2022-08-07T19:14:51.117Z,3.60
2022-08-07T19:18:03.960Z,3.70
2022-08-07T19:20:30.246Z,4.40
2022-08-07T19:23:18.685Z,4.10
2022-08-07T19:26:22.682Z,4.20
2022-08-07T19:30:54.223Z,4.30
2022-08-07T19:32:10.514Z,4.00
2022-08-07T19:34:32.646Z,3.80
2022-08-07T19:37:10.113Z,4.60
2022-08-07T19:39:56.685Z,4.70
2022-08-07T19:42:30.243Z,5.00
2022-08-07T19:45:09.237Z,4.60
2022-08-07T19:47:43.061Z,5.00
2022-08-07T19:50:44.510Z,5.00
2022-08-07T19:54:34.445Z,5.30
2022-08-07T19:55:57.912Z,5.20
2022-08-07T19:58:32.008Z,5.20
2022-08-07T20:01:04.482Z,5.50
2022-08-07T20:03:39.116Z,6.00
2022-08-07T20:06:15.439Z,6.00
2022-08-07T20:09:01.963Z,6.20
2022-08-07T20:12:01.490Z,6.00
2022-08-07T20:14:31.313Z,6.70
2022-08-07T20:17:09.168Z,7.00
2022-08-07T20:19:49.449Z,7.00
2022-08-07T20:22:34.386Z,7.00
2022-08-07T20:25:19.377Z,7.00
2022-08-07T20:27:57.849Z,7.20
2022-08-07T20:30:32.525Z,7.40
2022-08-07T20:33:09.051Z,7.70
2022-08-07T20:36:01.457Z,7.80
2022-08-07T20:38:33.610Z,7.90
2022-08-07T20:41:05.566Z,7.80
2022-08-07T20:43:36.074Z,7.90
2022-08-07T20:46:26.563Z,7.80
2022-08-07T20:49:59.587Z,8.30
2022-08-07T20:51:51.099Z,8.20
2022-08-07T20:54:30.208Z,8.50
2022-08-07T20:57:03.310Z,8.50
2022-08-07T21:00:07.467Z,8.50
2022-08-07T21:02:54.411Z,8.80
2022-08-07T21:05:51.199Z,9.00
2022-08-07T21:08:38.314Z,9.00
2022-08-07T21:11:12.265Z,9.30
2022-08-07T21:14:16.353Z,9.60
2022-08-07T21:16:46.792Z,10.30
2022-08-07T21:19:32.192Z,10.90
2022-08-07T21:22:19.837Z,10.90
2022-08-07T21:25:12.118Z,10.80
2022-08-07T21:28:01.823Z,10.60
2022-08-07T21:30:41.788Z,10.30
2022-08-07T21:33:17.604Z,10.60
2022-08-07T21:36:04.825Z,10.30
2022-08-07T21:38:58.888Z,10.60
2022-08-07T21:41:38.170Z,10.90
2022-08-07T21:44:32.405Z,11.40
2022-08-07T21:47:27.374Z,11.80
2022-08-07T21:50:03.222Z,11.40
2022-08-07T21:52:44.966Z,11.10
2022-08-07T21:55:29.755Z,11.40
2022-08-07T21:58:32.213Z,11.20
2022-08-07T22:01:14.342Z,11.20
2022-08-07T22:03:51.112Z,11.10
2022-08-07T22:06:30.988Z,11.10
2022-08-07T22:09:07.156Z,12.10
2022-08-07T22:11:53.371Z,12.20
2022-08-07T22:14:36.888Z,11.80
2022-08-07T22:17:10.292Z,11.70
2022-08-07T22:19:43.341Z,11.20
2022-08-07T22:22:21.444Z,11.50
2022-08-07T22:25:08.177Z,11.80
2022-08-07T22:28:07.628Z,12.40
2022-08-07T22:30:37.467Z,12.30
2022-08-07T22:33:09.299Z,12.30
2022-08-07T22:35:42.726Z,12.20
2022-08-07T22:38:25.803Z,12.10
2022-08-07T22:40:59.820Z,12.50
2022-08-07T22:43:37.252Z,12.50
2022-08-07T22:47:04.468Z,13.30
2022-08-07T22:49:55.110Z,12.80
2022-08-07T22:52:56.746Z,13.60
2022-08-07T22:55:43.879Z,14.10
2022-08-07T22:58:37.854Z,14.30
2022-08-07T23:01:30.535Z,14.50
2022-08-07T23:04:45.195Z,13.40
2022-08-07T23:07:42.410Z,13.40
2022-08-07T23:10:37.819Z,13.30
2022-08-07T23:13:29.421Z,13.70
2022-08-07T23:16:10.960Z,13.60
2022-08-07T23:19:48.095Z,15.00
2022-08-07T23:22:23.556Z,14.20
2022-08-07T23:25:09.375Z,14.10
2022-08-07T23:28:20.043Z,14.10
2022-08-07T23:31:05.837Z,13.80
2022-08-07T23:34:35.851Z,14.00
2022-08-07T23:37:20.287Z,14.00
2022-08-07T23:40:07.573Z,14.40
2022-08-07T23:42:55.275Z,14.40
2022-08-07T23:46:02.481Z,15.40
2022-08-07T23:48:30.250Z,16.00
2022-08-07T23:51:03.784Z,15.20
2022-08-07T23:54:28.435Z,15.40
2022-08-07T23:57:13.411Z,14.90
